sensor_id;sensor_type;location;lat;lon;timestamp;pressure;altitude;pressure_sealevel;temperature
81885;BMP280;71340;55.154;30.266;2023-09-19T08:14:33;99164.72;;;21.52
81885;BMP280;71340;55.154;30.266;2023-09-19T08:16:59;99161.03;;;21.75
81885;BMP280;71340;55.154;30.266;2023-09-19T08:19:25;99167.75;;;21.79
81885;BMP280;71340;55.154;30.266;2023-09-19T08:21:57;99155.81;;;21.96
81885;BMP280;71340;55.154;30.266;2023-09-19T08:24:27;99153.63;;;22.16
81885;BMP280;71340;55.154;30.266;2023-09-19T08:26:57;99151.53;;;22.11
81885;BMP280;71340;55.154;30.266;2023-09-19T08:29:23;99140.28;;;22.29
81885;BMP280;71340;55.154;30.266;2023-09-19T08:31:56;99150.22;;;22.16
81885;BMP280;71340;55.154;30.266;2023-09-19T08:34:22;99139.19;;;22.39
81885;BMP280;71340;55.154;30.266;2023-09-19T08:36:50;99135.88;;;22.69
81885;BMP280;71340;55.154;30.266;2023-09-19T08:39:16;99141.41;;;22.75
81885;BMP280;71340;55.154;30.266;2023-09-19T08:41:42;99130.69;;;22.87
81885;BMP280;71340;55.154;30.266;2023-09-19T08:44:07;99125.38;;;22.75
81885;BMP280;71340;55.154;30.266;2023-09-19T08:46:34;99137.34;;;22.83
81885;BMP280;71340;55.154;30.266;2023-09-19T08:49:05;99120.03;;;22.75
81885;BMP280;71340;55.154;30.266;2023-09-19T08:51:43;99122.75;;;22.62
81885;BMP280;71340;55.154;30.266;2023-09-19T08:54:21;99105.63;;;22.94
81885;BMP280;71340;55.154;30.266;2023-09-19T08:56:48;99115.09;;;22.86
81885;BMP280;71340;55.154;30.266;2023-09-19T08:59:15;99112.22;;;23.02
81885;BMP280;71340;55.154;30.266;2023-09-19T09:01:41;99113.44;;;23.10
81885;BMP280;71340;55.154;30.266;2023-09-19T09:04:11;99107.78;;;23.08
81885;BMP280;71340;55.154;30.266;2023-09-19T09:06:38;99116.38;;;22.81
81885;BMP280;71340;55.154;30.266;2023-09-19T09:09:04;99115.81;;;23.08
81885;BMP280;71340;55.154;30.266;2023-09-19T09:11:32;99097.97;;;23.05
81885;BMP280;71340;55.154;30.266;2023-09-19T09:13:58;99115.09;;;22.86
81885;BMP280;71340;55.154;30.266;2023-09-19T09:16:23;99112.09;;;22.84
81885;BMP280;71340;55.154;30.266;2023-09-19T09:18:51;99108.13;;;22.88
81885;BMP280;71340;55.154;30.266;2023-09-19T09:21:18;99095.09;;;22.99
81885;BMP280;71340;55.154;30.266;2023-09-19T09:23:43;99100.91;;;23.28
81885;BMP280;71340;55.154;30.266;2023-09-19T09:26:08;99099.03;;;23.38
81885;BMP280;71340;55.154;30.266;2023-09-19T09:28:34;99098.44;;;23.43
81885;BMP280;71340;55.154;30.266;2023-09-19T09:31:04;99106.47;;;23.43
81885;BMP280;71340;55.154;30.266;2023-09-19T09:33:52;99100.34;;;23.64
81885;BMP280;71340;55.154;30.266;2023-09-19T09:36:34;99083.09;;;23.74
81885;BMP280;71340;55.154;30.266;2023-09-19T09:38:59;99089.09;;;23.96
81885;BMP280;71340;55.154;30.266;2023-09-19T09:41:40;99094.34;;;24.00
81885;BMP280;71340;55.154;30.266;2023-09-19T09:44:13;99086.97;;;23.73
81885;BMP280;71340;55.154;30.266;2023-09-19T09:46:42;99093.22;;;23.70
81885;BMP280;71340;55.154;30.266;2023-09-19T09:49:22;99090.72;;;23.45
81885;BMP280;71340;55.154;30.266;2023-09-19T09:52:04;99076.81;;;23.59
81885;BMP280;71340;55.154;30.266;2023-09-19T09:54:34;99078.63;;;23.71
81885;BMP280;71340;55.154;30.266;2023-09-19T09:57:09;99079.72;;;24.01
81885;BMP280;71340;55.154;30.266;2023-09-19T10:02:17;99078.69;;;23.98
81885;BMP280;71340;55.154;30.266;2023-09-19T10:04:48;99085.81;;;23.92
81885;BMP280;71340;55.154;30.266;2023-09-19T10:07:31;99080.06;;;24.12
81885;BMP280;71340;55.154;30.266;2023-09-19T10:10:36;99073.03;;;23.87
81885;BMP280;71340;55.154;30.266;2023-09-19T10:13:14;99068.81;;;23.77
81885;BMP280;71340;55.154;30.266;2023-09-19T10:15:43;99061.44;;;23.99
81885;BMP280;71340;55.154;30.266;2023-09-19T10:18:19;99071.88;;;24.33
81885;BMP280;71340;55.154;30.266;2023-09-19T10:20:46;99072.28;;;24.68
81885;BMP280;71340;55.154;30.266;2023-09-19T10:23:13;99058.16;;;24.58
81885;BMP280;71340;55.154;30.266;2023-09-19T10:25:43;99055.63;;;24.28
81885;BMP280;71340;55.154;30.266;2023-09-19T10:28:13;99067.88;;;24.38
81885;BMP280;71340;55.154;30.266;2023-09-19T10:30:43;99058.91;;;24.05
81885;BMP280;71340;55.154;30.266;2023-09-19T10:33:11;99055.19;;;24.11
81885;BMP280;71340;55.154;30.266;2023-09-19T10:35:43;99045.66;;;24.28
81885;BMP280;71340;55.154;30.266;2023-09-19T10:38:10;99031.38;;;24.40
81885;BMP280;71340;55.154;30.266;2023-09-19T10:40:38;99038.94;;;24.60
81885;BMP280;71340;55.154;30.266;2023-09-19T10:43:20;99023.00;;;24.47
81885;BMP280;71340;55.154;30.266;2023-09-19T10:45:49;99039.53;;;24.96
81885;BMP280;71340;55.154;30.266;2023-09-19T10:48:17;99034.63;;;25.04
81885;BMP280;71340;55.154;30.266;2023-09-19T10:53:48;99023.56;;;25.11
81885;BMP280;71340;55.154;30.266;2023-09-19T10:56:29;99011.47;;;25.15
81885;BMP280;71340;55.154;30.266;2023-09-19T10:59:15;99010.16;;;25.35
81885;BMP280;71340;55.154;30.266;2023-09-19T11:01:51;99019.19;;;25.70
81885;BMP280;71340;55.154;30.266;2023-09-19T11:04:30;98989.47;;;24.70
81885;BMP280;71340;55.154;30.266;2023-09-19T11:09:51;99007.25;;;25.47
81885;BMP280;71340;55.154;30.266;2023-09-19T11:15:05;99009.44;;;25.58
81885;BMP280;71340;55.154;30.266;2023-09-19T11:17:37;98992.19;;;25.26
81885;BMP280;71340;55.154;30.266;2023-09-19T11:30:33;98979.16;;;24.77
81885;BMP280;71340;55.154;30.266;2023-09-19T11:33:22;98973.97;;;25.06
81885;BMP280;71340;55.154;30.266;2023-09-19T11:46:51;98954.16;;;25.04
81885;BMP280;71340;55.154;30.266;2023-09-19T11:49:18;98973.28;;;25.20
81885;BMP280;71340;55.154;30.266;2023-09-19T11:51:50;98957.78;;;24.92
81885;BMP280;71340;55.154;30.266;2023-09-19T11:54:16;98974.41;;;25.29
81885;BMP280;71340;55.154;30.266;2023-09-19T11:56:52;98971.47;;;25.27
81885;BMP280;71340;55.154;30.266;2023-09-19T11:59:22;98963.34;;;25.36
81885;BMP280;71340;55.154;30.266;2023-09-19T12:01:53;98965.75;;;25.57
81885;BMP280;71340;55.154;30.266;2023-09-19T12:07:04;98964.81;;;26.13
81885;BMP280;71340;55.154;30.266;2023-09-19T12:09:30;98958.69;;;25.98
81885;BMP280;71340;55.154;30.266;2023-09-19T12:11:55;98949.13;;;25.97
81885;BMP280;71340;55.154;30.266;2023-09-19T12:14:26;98967.09;;;26.49
81885;BMP280;71340;55.154;30.266;2023-09-19T12:16:53;98956.00;;;26.27
81885;BMP280;71340;55.154;30.266;2023-09-19T12:19:21;98961.16;;;27.14
81885;BMP280;71340;55.154;30.266;2023-09-19T12:22:00;98935.16;;;26.36
81885;BMP280;71340;55.154;30.266;2023-09-19T12:24:34;98950.81;;;25.80
81885;BMP280;71340;55.154;30.266;2023-09-19T12:27:05;98938.78;;;26.19
81885;BMP280;71340;55.154;30.266;2023-09-19T12:29:32;98947.28;;;26.17
81885;BMP280;71340;55.154;30.266;2023-09-19T12:31:59;98951.66;;;26.15
81885;BMP280;71340;55.154;30.266;2023-09-19T12:34:33;98970.09;;;26.36
81885;BMP280;71340;55.154;30.266;2023-09-19T12:37:11;98956.09;;;26.47
81885;BMP280;71340;55.154;30.266;2023-09-19T12:39:44;98947.09;;;26.84
81885;BMP280;71340;55.154;30.266;2023-09-19T12:42:14;98961.47;;;26.81
81885;BMP280;71340;55.154;30.266;2023-09-19T12:44:44;98940.84;;;26.93
81885;BMP280;71340;55.154;30.266;2023-09-19T12:47:14;98946.66;;;27.26
81885;BMP280;71340;55.154;30.266;2023-09-19T12:50:09;98959.03;;;27.38
81885;BMP280;71340;55.154;30.266;2023-09-19T12:52:46;98946.91;;;26.88
81885;BMP280;71340;55.154;30.266;2023-09-19T12:55:29;98947.97;;;27.36
81885;BMP280;71340;55.154;30.266;2023-09-19T12:58:13;98926.66;;;27.58
81885;BMP280;71340;55.154;30.266;2023-09-19T13:00:42;98940.19;;;27.38
81885;BMP280;71340;55.154;30.266;2023-09-19T13:03:25;98964.84;;;26.76
81885;BMP280;71340;55.154;30.266;2023-09-19T13:05:52;98938.97;;;26.64
81885;BMP280;71340;55.154;30.266;2023-09-19T13:08:24;98929.50;;;26.89
81885;BMP280;71340;55.154;30.266;2023-09-19T13:13:33;98915.47;;;27.65
81885;BMP280;71340;55.154;30.266;2023-09-19T13:15:58;98929.28;;;28.35
81885;BMP280;71340;55.154;30.266;2023-09-19T13:18:24;98930.22;;;28.01
81885;BMP280;71340;55.154;30.266;2023-09-19T13:21:05;98940.28;;;28.00
81885;BMP280;71340;55.154;30.266;2023-09-19T13:23:35;98922.25;;;28.48
81885;BMP280;71340;55.154;30.266;2023-09-19T13:26:02;98918.47;;;28.71
81885;BMP280;71340;55.154;30.266;2023-09-19T13:28:29;98911.59;;;29.68
81885;BMP280;71340;55.154;30.266;2023-09-19T13:30:55;98915.78;;;28.35
81885;BMP280;71340;55.154;30.266;2023-09-19T13:33:20;98924.44;;;28.44
81885;BMP280;71340;55.154;30.266;2023-09-19T13:35:46;98927.63;;;27.55
81885;BMP280;71340;55.154;30.266;2023-09-19T13:38:13;98923.22;;;26.92
81885;BMP280;71340;55.154;30.266;2023-09-19T13:40:39;98915.88;;;26.38
81885;BMP280;71340;55.154;30.266;2023-09-19T13:43:07;98914.31;;;26.66
81885;BMP280;71340;55.154;30.266;2023-09-19T13:45:32;98921.53;;;27.35
81885;BMP280;71340;55.154;30.266;2023-09-19T13:47:58;98924.38;;;28.81
81885;BMP280;71340;55.154;30.266;2023-09-19T13:50:26;98921.59;;;28.64
81885;BMP280;71340;55.154;30.266;2023-09-19T13:52:54;98917.19;;;26.97
81885;BMP280;71340;55.154;30.266;2023-09-19T13:55:20;98906.94;;;26.32
81885;BMP280;71340;55.154;30.266;2023-09-19T13:57:49;98908.84;;;25.30
81885;BMP280;71340;55.154;30.266;2023-09-19T14:00:16;98921.66;;;24.78
81885;BMP280;71340;55.154;30.266;2023-09-19T14:02:41;98922.28;;;24.64
81885;BMP280;71340;55.154;30.266;2023-09-19T14:05:09;98913.72;;;24.42
81885;BMP280;71340;55.154;30.266;2023-09-19T14:07:37;98911.53;;;24.73
81885;BMP280;71340;55.154;30.266;2023-09-19T14:10:03;98908.13;;;24.96
81885;BMP280;71340;55.154;30.266;2023-09-19T14:12:29;98912.28;;;24.74
81885;BMP280;71340;55.154;30.266;2023-09-19T14:14:55;98912.66;;;24.58
81885;BMP280;71340;55.154;30.266;2023-09-19T14:17:21;98909.94;;;24.67
81885;BMP280;71340;55.154;30.266;2023-09-19T14:19:46;98902.06;;;24.63
81885;BMP280;71340;55.154;30.266;2023-09-19T14:22:12;98904.38;;;25.65
81885;BMP280;71340;55.154;30.266;2023-09-19T14:24:39;98897.44;;;25.35
81885;BMP280;71340;55.154;30.266;2023-09-19T14:27:06;98889.81;;;24.95
81885;BMP280;71340;55.154;30.266;2023-09-19T14:29:34;98886.88;;;24.60
81885;BMP280;71340;55.154;30.266;2023-09-19T14:31:59;98895.13;;;24.39
81885;BMP280;71340;55.154;30.266;2023-09-19T14:34:24;98888.09;;;24.09
81885;BMP280;71340;55.154;30.266;2023-09-19T14:36:50;98892.13;;;23.68
81885;BMP280;71340;55.154;30.266;2023-09-19T14:39:15;98893.63;;;23.51
81885;BMP280;71340;55.154;30.266;2023-09-19T14:41:40;98890.53;;;23.52
81885;BMP280;71340;55.154;30.266;2023-09-19T14:44:06;98885.44;;;23.18
81885;BMP280;71340;55.154;30.266;2023-09-19T14:46:31;98884.69;;;23.18
81885;BMP280;71340;55.154;30.266;2023-09-19T14:48:57;98887.16;;;23.03
81885;BMP280;71340;55.154;30.266;2023-09-19T14:51:29;98887.72;;;22.89
81885;BMP280;71340;55.154;30.266;2023-09-19T14:53:55;98891.47;;;23.01
81885;BMP280;71340;55.154;30.266;2023-09-19T14:56:21;98886.91;;;22.71
81885;BMP280;71340;55.154;30.266;2023-09-19T14:58:47;98887.50;;;22.75
81885;BMP280;71340;55.154;30.266;2023-09-19T15:01:13;98888.41;;;22.81
81885;BMP280;71340;55.154;30.266;2023-09-19T15:03:42;98881.56;;;22.71
81885;BMP280;71340;55.154;30.266;2023-09-19T15:06:10;98868.72;;;22.48
81885;BMP280;71340;55.154;30.266;2023-09-19T15:08:38;98880.34;;;22.54
81885;BMP280;71340;55.154;30.266;2023-09-19T15:11:09;98874.88;;;22.36
81885;BMP280;71340;55.154;30.266;2023-09-19T15:13:36;98873.06;;;22.33
81885;BMP280;71340;55.154;30.266;2023-09-19T15:16:06;98876.75;;;22.26
81885;BMP280;71340;55.154;30.266;2023-09-19T15:18:38;98881.69;;;22.28
81885;BMP280;71340;55.154;30.266;2023-09-19T15:21:05;98873.59;;;22.18
81885;BMP280;71340;55.154;30.266;2023-09-19T15:23:31;98880.06;;;22.08
81885;BMP280;71340;55.154;30.266;2023-09-19T15:26:02;98868.03;;;22.04
81885;BMP280;71340;55.154;30.266;2023-09-19T15:28:30;98870.38;;;21.80
81885;BMP280;71340;55.154;30.266;2023-09-19T15:31:03;98866.88;;;21.71
81885;BMP280;71340;55.154;30.266;2023-09-19T15:33:32;98869.13;;;21.72
81885;BMP280;71340;55.154;30.266;2023-09-19T15:36:08;98864.75;;;21.66
81885;BMP280;71340;55.154;30.266;2023-09-19T15:38:59;98862.03;;;21.57
81885;BMP280;71340;55.154;30.266;2023-09-19T15:41:35;98850.13;;;21.36
81885;BMP280;71340;55.154;30.266;2023-09-19T15:44:10;98851.88;;;21.30
81885;BMP280;71340;55.154;30.266;2023-09-19T15:46:35;98853.88;;;21.26
81885;BMP280;71340;55.154;30.266;2023-09-19T15:49:02;98852.81;;;21.24
81885;BMP280;71340;55.154;30.266;2023-09-19T15:51:28;98864.59;;;21.14
81885;BMP280;71340;55.154;30.266;2023-09-19T15:53:54;98857.47;;;20.98
81885;BMP280;71340;55.154;30.266;2023-09-19T15:56:22;98864.38;;;20.83
81885;BMP280;71340;55.154;30.266;2023-09-19T15:58:49;98866.91;;;20.74
81885;BMP280;71340;55.154;30.266;2023-09-19T16:01:15;98862.78;;;20.73
81885;BMP280;71340;55.154;30.266;2023-09-19T16:03:52;98857.13;;;20.58
81885;BMP280;71340;55.154;30.266;2023-09-19T16:06:22;98868.84;;;20.61
81885;BMP280;71340;55.154;30.266;2023-09-19T16:08:52;98866.50;;;20.63
81885;BMP280;71340;55.154;30.266;2023-09-19T16:11:18;98869.13;;;20.50
81885;BMP280;71340;55.154;30.266;2023-09-19T16:13:47;98862.50;;;20.42
81885;BMP280;71340;55.154;30.266;2023-09-19T16:16:13;98874.25;;;20.45
81885;BMP280;71340;55.154;30.266;2023-09-19T16:18:48;98873.47;;;20.32
81885;BMP280;71340;55.154;30.266;2023-09-19T16:21:14;98868.22;;;20.28
81885;BMP280;71340;55.154;30.266;2023-09-19T16:23:40;98870.03;;;20.19
81885;BMP280;71340;55.154;30.266;2023-09-19T16:26:07;98869.38;;;20.15
81885;BMP280;71340;55.154;30.266;2023-09-19T16:28:39;98873.41;;;20.07
81885;BMP280;71340;55.154;30.266;2023-09-19T16:31:05;98870.41;;;20.05
81885;BMP280;71340;55.154;30.266;2023-09-19T16:33:35;98878.31;;;19.92
81885;BMP280;71340;55.154;30.266;2023-09-19T16:36:02;98870.09;;;19.87
81885;BMP280;71340;55.154;30.266;2023-09-19T16:38:28;98871.03;;;19.80
81885;BMP280;71340;55.154;30.266;2023-09-19T16:40:58;98863.19;;;19.77
81885;BMP280;71340;55.154;30.266;2023-09-19T16:43:25;98874.97;;;19.75
81885;BMP280;71340;55.154;30.266;2023-09-19T16:45:59;98862.66;;;19.65
81885;BMP280;71340;55.154;30.266;2023-09-19T16:48:26;98864.69;;;19.61
81885;BMP280;71340;55.154;30.266;2023-09-19T16:50:52;98871.31;;;19.53
81885;BMP280;71340;55.154;30.266;2023-09-19T16:53:19;98868.19;;;19.42
81885;BMP280;71340;55.154;30.266;2023-09-19T16:55:45;98870.00;;;19.45
81885;BMP280;71340;55.154;30.266;2023-09-19T16:58:12;98859.69;;;19.47
81885;BMP280;71340;55.154;30.266;2023-09-19T17:00:38;98863.28;;;19.41
81885;BMP280;71340;55.154;30.266;2023-09-19T17:03:04;98850.41;;;19.23
81885;BMP280;71340;55.154;30.266;2023-09-19T17:05:30;98874.72;;;19.22
81885;BMP280;71340;55.154;30.266;2023-09-19T17:07:56;98876.38;;;19.16
81885;BMP280;71340;55.154;30.266;2023-09-19T17:10:21;98871.88;;;19.13
81885;BMP280;71340;55.154;30.266;2023-09-19T17:12:47;98870.47;;;19.08
81885;BMP280;71340;55.154;30.266;2023-09-19T17:15:12;98871.53;;;18.95
81885;BMP280;71340;55.154;30.266;2023-09-19T17:17:38;98879.44;;;18.98
81885;BMP280;71340;55.154;30.266;2023-09-19T17:20:08;98870.06;;;18.94
81885;BMP280;71340;55.154;30.266;2023-09-19T17:22:33;98881.59;;;19.03
81885;BMP280;71340;55.154;30.266;2023-09-19T17:24:58;98883.47;;;18.87
81885;BMP280;71340;55.154;30.266;2023-09-19T17:27:24;98885.38;;;18.86
81885;BMP280;71340;55.154;30.266;2023-09-19T17:29:49;98891.34;;;18.90
81885;BMP280;71340;55.154;30.266;2023-09-19T17:32:15;98885.03;;;18.84
81885;BMP280;71340;55.154;30.266;2023-09-19T17:34:40;98886.56;;;18.85
81885;BMP280;71340;55.154;30.266;2023-09-19T17:37:06;98881.97;;;18.86
81885;BMP280;71340;55.154;30.266;2023-09-19T17:39:33;98890.50;;;18.77
81885;BMP280;71340;55.154;30.266;2023-09-19T17:42:00;98875.00;;;18.76
81885;BMP280;71340;55.154;30.266;2023-09-19T17:44:26;98896.78;;;18.67
81885;BMP280;71340;55.154;30.266;2023-09-19T17:46:58;98892.75;;;18.59
81885;BMP280;71340;55.154;30.266;2023-09-19T17:49:24;98894.13;;;18.67
81885;BMP280;71340;55.154;30.266;2023-09-19T17:51:49;98891.00;;;18.52
81885;BMP280;71340;55.154;30.266;2023-09-19T17:54:14;98898.28;;;18.48
81885;BMP280;71340;55.154;30.266;2023-09-19T17:56:40;98896.59;;;18.38
81885;BMP280;71340;55.154;30.266;2023-09-19T17:59:05;98900.09;;;18.32
81885;BMP280;71340;55.154;30.266;2023-09-19T18:01:30;98902.56;;;18.42
81885;BMP280;71340;55.154;30.266;2023-09-19T18:03:57;98885.69;;;18.33
81885;BMP280;71340;55.154;30.266;2023-09-19T18:06:24;98889.63;;;18.25
81885;BMP280;71340;55.154;30.266;2023-09-19T18:08:51;98898.69;;;18.27
81885;BMP280;71340;55.154;30.266;2023-09-19T18:11:18;98890.22;;;18.13
81885;BMP280;71340;55.154;30.266;2023-09-19T18:13:47;98904.97;;;18.14
81885;BMP280;71340;55.154;30.266;2023-09-19T18:16:20;98892.53;;;18.11
81885;BMP280;71340;55.154;30.266;2023-09-19T18:18:46;98899.16;;;17.99
81885;BMP280;71340;55.154;30.266;2023-09-19T18:21:16;98902.91;;;18.02
81885;BMP280;71340;55.154;30.266;2023-09-19T18:23:54;98903.03;;;17.95
81885;BMP280;71340;55.154;30.266;2023-09-19T18:26:20;98909.72;;;18.03
81885;BMP280;71340;55.154;30.266;2023-09-19T18:28:46;98899.34;;;17.89
81885;BMP280;71340;55.154;30.266;2023-09-19T18:31:11;98899.81;;;17.84
81885;BMP280;71340;55.154;30.266;2023-09-19T18:33:36;98909.25;;;17.85
81885;BMP280;71340;55.154;30.266;2023-09-19T18:36:06;98904.66;;;17.89
81885;BMP280;71340;55.154;30.266;2023-09-19T18:38:42;98911.38;;;17.93
81885;BMP280;71340;55.154;30.266;2023-09-19T18:41:09;98916.13;;;17.82
81885;BMP280;71340;55.154;30.266;2023-09-19T18:43:38;98909.41;;;17.78
81885;BMP280;71340;55.154;30.266;2023-09-19T18:46:06;98901.59;;;17.90
81885;BMP280;71340;55.154;30.266;2023-09-19T18:48:36;98905.47;;;17.86
81885;BMP280;71340;55.154;30.266;2023-09-19T18:51:05;98905.47;;;17.86
81885;BMP280;71340;55.154;30.266;2023-09-19T18:53:34;98888.50;;;17.80
81885;BMP280;71340;55.154;30.266;2023-09-19T18:56:05;98902.59;;;17.77
81885;BMP280;71340;55.154;30.266;2023-09-19T18:58:31;98901.97;;;17.92
81885;BMP280;71340;55.154;30.266;2023-09-19T19:01:03;98895.69;;;17.83
81885;BMP280;71340;55.154;30.266;2023-09-19T19:03:29;98897.66;;;17.75
81885;BMP280;71340;55.154;30.266;2023-09-19T19:05:56;98905.31;;;17.70
81885;BMP280;71340;55.154;30.266;2023-09-19T19:08:23;98902.75;;;17.66
81885;BMP280;71340;55.154;30.266;2023-09-19T19:10:48;98899.41;;;17.62
81885;BMP280;71340;55.154;30.266;2023-09-19T19:13:13;98902.09;;;17.58
81885;BMP280;71340;55.154;30.266;2023-09-19T19:15:39;98891.09;;;17.60
81885;BMP280;71340;55.154;30.266;2023-09-19T19:18:04;98895.06;;;17.48
81885;BMP280;71340;55.154;30.266;2023-09-19T19:20:30;98897.03;;;17.44
81885;BMP280;71340;55.154;30.266;2023-09-19T19:22:55;98888.72;;;17.42
81885;BMP280;71340;55.154;30.266;2023-09-19T19:25:21;98889.84;;;17.41
81885;BMP280;71340;55.154;30.266;2023-09-19T19:27:46;98887.22;;;17.41
81885;BMP280;71340;55.154;30.266;2023-09-19T19:30:12;98883.13;;;17.37
81885;BMP280;71340;55.154;30.266;2023-09-19T19:32:42;98883.84;;;17.37
81885;BMP280;71340;55.154;30.266;2023-09-19T19:35:07;98876.38;;;17.32
81885;BMP280;71340;55.154;30.266;2023-09-19T19:37:33;98873.72;;;17.32
81885;BMP280;71340;55.154;30.266;2023-09-19T19:40:00;98876.00;;;17.34
81885;BMP280;71340;55.154;30.266;2023-09-19T19:42:26;98875.28;;;17.30
81885;BMP280;71340;55.154;30.266;2023-09-19T19:44:53;98870.81;;;17.23
81885;BMP280;71340;55.154;30.266;2023-09-19T19:47:19;98884.91;;;17.17
81885;BMP280;71340;55.154;30.266;2023-09-19T19:49:44;98881.94;;;17.11
81885;BMP280;71340;55.154;30.266;2023-09-19T19:52:12;98884.56;;;17.15
81885;BMP280;71340;55.154;30.266;2023-09-19T19:54:37;98882.50;;;16.99
81885;BMP280;71340;55.154;30.266;2023-09-19T19:57:04;98875.72;;;16.98
81885;BMP280;71340;55.154;30.266;2023-09-19T19:59:29;98880.69;;;16.93
81885;BMP280;71340;55.154;30.266;2023-09-19T20:01:55;98885.69;;;16.87
81885;BMP280;71340;55.154;30.266;2023-09-19T20:04:21;98880.03;;;16.85
81885;BMP280;71340;55.154;30.266;2023-09-19T20:06:46;98887.94;;;16.89
81885;BMP280;71340;55.154;30.266;2023-09-19T20:09:12;98888.72;;;16.86
81885;BMP280;71340;55.154;30.266;2023-09-19T20:11:38;98884.97;;;16.83
81885;BMP280;71340;55.154;30.266;2023-09-19T20:14:04;98894.75;;;16.86
81885;BMP280;71340;55.154;30.266;2023-09-19T20:16:30;98889.50;;;16.83
81885;BMP280;71340;55.154;30.266;2023-09-19T20:19:03;98891.81;;;16.81
81885;BMP280;71340;55.154;30.266;2023-09-19T20:21:30;98883.47;;;16.82
81885;BMP280;71340;55.154;30.266;2023-09-19T20:23:56;98888.44;;;16.77
81885;BMP280;71340;55.154;30.266;2023-09-19T20:26:22;98885.72;;;16.84
81885;BMP280;71340;55.154;30.266;2023-09-19T20:28:47;98891.81;;;16.81
81885;BMP280;71340;55.154;30.266;2023-09-19T20:31:13;98894.53;;;16.74
81885;BMP280;71340;55.154;30.266;2023-09-19T20:33:41;98890.41;;;16.73
81885;BMP280;71340;55.154;30.266;2023-09-19T20:36:07;98886.91;;;16.79
81885;BMP280;71340;55.154;30.266;2023-09-19T20:38:34;98880.47;;;16.80
81885;BMP280;71340;55.154;30.266;2023-09-19T20:41:00;98891.06;;;16.80
81885;BMP280;71340;55.154;30.266;2023-09-19T20:43:31;98883.47;;;16.82
81885;BMP280;71340;55.154;30.266;2023-09-19T20:46:02;98879.38;;;16.78
81885;BMP280;71340;55.154;30.266;2023-09-19T20:48:29;98892.56;;;16.81
81885;BMP280;71340;55.154;30.266;2023-09-19T20:50:55;98886.56;;;16.77
81885;BMP280;71340;55.154;30.266;2023-09-19T20:53:20;98888.13;;;16.71
81885;BMP280;71340;55.154;30.266;2023-09-19T20:55:45;98887.75;;;16.73
81885;BMP280;71340;55.154;30.266;2023-09-19T20:58:11;98877.59;;;16.68
81885;BMP280;71340;55.154;30.266;2023-09-19T21:00:39;98891.53;;;16.72
81885;BMP280;71340;55.154;30.266;2023-09-19T21:03:05;98888.88;;;16.75
81885;BMP280;71340;55.154;30.266;2023-09-19T21:05:30;98888.22;;;16.64
81885;BMP280;71340;55.154;30.266;2023-09-19T21:07:56;98884.44;;;16.62
81885;BMP280;71340;55.154;30.266;2023-09-19T21:10:21;98890.50;;;16.62
81885;BMP280;71340;55.154;30.266;2023-09-19T21:12:47;98882.56;;;16.62
81885;BMP280;71340;55.154;30.266;2023-09-19T21:15:13;98883.63;;;16.68
81885;BMP280;71340;55.154;30.266;2023-09-19T21:17:40;98884.44;;;16.65
81885;BMP280;71340;55.154;30.266;2023-09-19T21:20:10;98886.78;;;16.56
81885;BMP280;71340;55.154;30.266;2023-09-19T21:22:39;98893.94;;;16.59
81885;BMP280;71340;55.154;30.266;2023-09-19T21:25:05;98888.66;;;16.59
81885;BMP280;71340;55.154;30.266;2023-09-19T21:27:33;98894.28;;;16.61
81885;BMP280;71340;55.154;30.266;2023-09-19T21:29:59;98878.47;;;16.58
81885;BMP280;71340;55.154;30.266;2023-09-19T21:32:24;98882.28;;;16.53
81885;BMP280;71340;55.154;30.266;2023-09-19T21:34:50;98891.47;;;16.45
81885;BMP280;71340;55.154;30.266;2023-09-19T21:37:15;98890.59;;;16.55
81885;BMP280;71340;55.154;30.266;2023-09-19T21:39:42;98901.97;;;16.52
81885;BMP280;71340;55.154;30.266;2023-09-19T21:42:08;98886.97;;;16.38
81885;BMP280;71340;55.154;30.266;2023-09-19T21:44:33;98886.16;;;16.45
81885;BMP280;71340;55.154;30.266;2023-09-19T21:46:58;98887.00;;;16.35
81885;BMP280;71340;55.154;30.266;2023-09-19T21:49:26;98888.50;;;16.36
81885;BMP280;71340;55.154;30.266;2023-09-19T21:51:51;98891.16;;;16.36
81885;BMP280;71340;55.154;30.266;2023-09-19T21:54:16;98892.19;;;16.49
81885;BMP280;71340;55.154;30.266;2023-09-19T21:56:42;98892.88;;;16.53
81885;BMP280;71340;55.154;30.266;2023-09-19T21:59:08;98897.47;;;16.49
81885;BMP280;71340;55.154;30.266;2023-09-19T22:01:33;98891.75;;;16.50
81885;BMP280;71340;55.154;30.266;2023-09-19T22:03:59;98883.44;;;16.52
81885;BMP280;71340;55.154;30.266;2023-09-19T22:06:24;98890.22;;;16.53
81885;BMP280;71340;55.154;30.266;2023-09-19T22:08:50;98893.63;;;16.53
81885;BMP280;71340;55.154;30.266;2023-09-19T22:11:17;98891.75;;;16.54
81885;BMP280;71340;55.154;30.266;2023-09-19T22:13:42;98889.06;;;16.58
81885;BMP280;71340;55.154;30.266;2023-09-19T22:16:14;98894.22;;;16.68
81885;BMP280;71340;55.154;30.266;2023-09-19T22:18:40;98892.34;;;16.69
81885;BMP280;71340;55.154;30.266;2023-09-19T22:21:07;98886.63;;;16.70
81885;BMP280;71340;55.154;30.266;2023-09-19T22:23:38;98897.94;;;16.74
81885;BMP280;71340;55.154;30.266;2023-09-19T22:26:10;98888.88;;;16.75
81885;BMP280;71340;55.154;30.266;2023-09-19T22:28:41;98888.22;;;16.64
81885;BMP280;71340;55.154;30.266;2023-09-19T22:31:17;98888.97;;;16.61
81885;BMP280;71340;55.154;30.266;2023-09-19T22:33:45;98885.25;;;16.58
81885;BMP280;71340;55.154;30.266;2023-09-19T22:36:15;98887.91;;;16.58
81885;BMP280;71340;55.154;30.266;2023-09-19T22:38:41;98887.09;;;16.65
81885;BMP280;71340;55.154;30.266;2023-09-19T22:41:06;98885.31;;;16.55
81885;BMP280;71340;55.154;30.266;2023-09-19T22:43:36;98881.47;;;16.60
81885;BMP280;71340;55.154;30.266;2023-09-19T22:46:07;98886.78;;;16.56
81885;BMP280;71340;55.154;30.266;2023-09-19T22:48:37;98876.94;;;16.60
81885;BMP280;71340;55.154;30.266;2023-09-19T22:51:02;98883.00;;;16.57
81885;BMP280;71340;55.154;30.266;2023-09-19T22:53:31;98879.22;;;16.58
81885;BMP280;71340;55.154;30.266;2023-09-19T22:56:11;98883.69;;;16.61